Terminal Aerodrome Forecast
Issued by NWS

Home | Current Version | Previous Version | Text Only | Print | Product List | Glossary On
Versions: 1 2 3 4 5 6 7 8 9 10 11 12 13 14 15 16 17 18
000
FTUS46 KSGX 182300
TAFSNA
TAF
KSNA 182340Z 1900/1924 23009G14KT P6SM SCT025 BKN035 BKN250
     FM190200 25005KT P6SM SCT025 SCT035
     FM190700 VRB03KT P6SM BKN022
     FM192000 25008KT P6SM SCT025=

USA.gov is the U.S. government's official web portal to all federal, state and local government web resources and services.